Time,TemperatureF,DewpointF,PressureIn,WindDirection,WindDirectionDegrees,WindSpeedMPH,WindSpeedGustMPH,Humidity,HourlyPrecipIn,Conditions,Clouds,dailyrainin,SoftwareType,DateUTC
2013-01-07 00:00:00,46.0,39.9,30.36,NW,315,2.0,3.4,79,0.00,,BKN120,0.00,VWS V14.01,2013-01-07 06:00:00,
2013-01-07 00:04:00,46.9,40.8,30.36,ESE,112,2.0,2.0,79,0.00,,BKN230,0.00,VWS V14.01,2013-01-07 06:04:00,
2013-01-07 00:05:00,46.9,40.8,30.36,NE,45,0.9,3.4,79,0.00,,BKN250,0.00,VWS V14.01,2013-01-07 06:05:00,
2013-01-07 00:09:00,46.8,40.6,30.36,NW,315,1.6,2.7,79,0.00,,BKN230,0.00,VWS V14.01,2013-01-07 06:09:00,
2013-01-07 00:10:00,46.8,40.6,30.36,West,270,2.5,5.8,79,0.00,,BKN250,0.00,VWS V14.01,2013-01-07 06:10:00,
2013-01-07 00:14:00,46.8,40.6,30.36,West,270,0.0,2.7,79,0.00,,BKN230,0.00,VWS V14.01,2013-01-07 06:14:00,
2013-01-07 00:15:00,46.8,40.6,30.36,WSW,248,0.0,2.7,79,0.00,,BKN250,0.00,VWS V14.01,2013-01-07 06:15:00,
2013-01-07 00:19:00,46.6,40.4,30.36,ESE,112,0.0,2.7,79,0.00,,BKN230,0.00,VWS V14.01,2013-01-07 06:19:00,
2013-01-07 00:20:00,46.6,40.4,30.36,SSE,158,0.0,2.7,79,0.00,,BKN250,0.00,VWS V14.01,2013-01-07 06:20:00,
2013-01-07 00:24:00,46.6,40.4,30.36,WNW,292,0.0,2.0,79,0.00,,BKN230,0.00,VWS V14.01,2013-01-07 06:24:00,
2013-01-07 00:25:00,46.6,40.4,30.36,NNW,338,1.3,3.4,79,0.00,,BKN250,0.00,VWS V14.01,2013-01-07 06:25:00,
2013-01-07 00:29:00,46.4,40.2,30.36,South,180,1.6,2.0,79,0.00,,BKN230,0.00,VWS V14.01,2013-01-07 06:29:00,
2013-01-07 00:30:00,46.4,40.2,30.36,NNW,338,0.0,2.9,79,0.00,,BKN250,0.00,VWS V14.01,2013-01-07 06:30:00,
2013-01-07 00:34:00,46.4,40.2,30.36,WNW,292,2.7,2.7,79,0.00,,BKN230,0.00,VWS V14.01,2013-01-07 06:34:00,
2013-01-07 00:35:00,46.4,40.2,30.36,ESE,112,0.0,3.6,79,0.00,,BKN250,0.00,VWS V14.01,2013-01-07 06:35:00,
2013-01-07 00:39:00,46.2,40.1,30.36,SE,135,0.0,2.5,79,0.00,,BKN230,0.00,VWS V14.01,2013-01-07 06:39:00,
2013-01-07 00:40:00,46.2,40.1,30.36,NNW,338,0.0,2.7,79,0.00,,BKN250,0.00,VWS V14.01,2013-01-07 06:40:00,
2013-01-07 00:45:00,46.0,39.9,30.36,NNE,22,2.5,3.8,79,0.00,,BKN230,0.00,VWS V14.01,2013-01-07 06:45:00,
2013-01-07 00:50:00,46.0,39.9,30.36,NNE,22,2.5,3.1,79,0.00,,BKN230,0.00,VWS V14.01,2013-01-07 06:50:00,
2013-01-07 00:55:00,46.0,39.9,30.36,East,90,1.1,3.4,79,0.00,,BKN230,0.00,VWS V14.01,2013-01-07 06:55:00,
2013-01-07 01:00:00,46.0,39.9,30.36,NE,45,1.6,4.7,79,0.00,,BKN230,0.00,VWS V14.01,2013-01-07 07:00:00,
2013-01-07 01:05:00,45.9,39.4,30.36,NNW,338,2.2,3.8,78,0.00,,BKN230,0.00,VWS V14.01,2013-01-07 07:05:00,
2013-01-07 01:10:00,45.9,39.4,30.36,WNW,292,1.3,2.7,78,0.00,,BKN230,0.00,VWS V14.01,2013-01-07 07:10:00,
2013-01-07 01:15:00,45.7,39.2,30.36,SE,135,0.9,1.1,78,0.00,,BKN230,0.00,VWS V14.01,2013-01-07 07:15:00,
2013-01-07 01:20:00,45.5,39.0,30.33,WNW,292,0.0,1.1,78,0.00,,BKN230,0.00,VWS V14.01,2013-01-07 07:20:00,
2013-01-07 01:25:00,45.5,39.0,30.33,ESE,112,2.5,2.7,78,0.00,,BKN230,0.00,VWS V14.01,2013-01-07 07:25:00,
2013-01-07 01:30:00,45.3,38.9,30.33,ESE,112,0.0,2.7,78,0.00,,BKN230,0.00,VWS V14.01,2013-01-07 07:30:00,
2013-01-07 01:35:00,45.3,38.9,30.33,NNW,338,2.0,2.0,78,0.00,,BKN230,0.00,VWS V14.01,2013-01-07 07:35:00,
2013-01-07 01:40:00,45.1,38.7,30.33,West,270,0.0,2.2,78,0.00,,BKN230,0.00,VWS V14.01,2013-01-07 07:40:00,
2013-01-07 01:45:00,45.1,38.4,30.33,NNW,338,0.0,0.9,77,0.00,,BKN230,0.00,VWS V14.01,2013-01-07 07:45:00,
2013-01-07 01:50:00,45.0,38.5,30.33,East,90,0.9,1.3,78,0.00,,BKN230,0.00,VWS V14.01,2013-01-07 07:50:00,
2013-01-07 01:55:00,44.8,38.3,30.33,North,0,1.1,3.6,78,0.00,,BKN230,0.00,VWS V14.01,2013-01-07 07:55:00,
2013-01-07 02:00:00,44.8,38.3,30.33,ESE,112,0.0,0.0,78,0.00,,BKN230,0.00,VWS V14.01,2013-01-07 08:00:00,
2013-01-07 02:05:00,44.6,38.2,30.33,East,90,0.0,3.4,78,0.00,,BKN250,0.00,VWS V14.01,2013-01-07 08:05:00,
2013-01-07 02:06:00,44.6,38.2,30.33,East,90,0.0,3.6,78,0.00,,BKN230,0.00,VWS V14.01,2013-01-07 08:06:00,
2013-01-07 02:10:00,44.6,38.2,30.33,East,90,0.9,3.6,78,0.00,,BKN250,0.00,VWS V14.01,2013-01-07 08:10:00,
2013-01-07 02:11:00,44.4,38.0,30.33,WSW,248,0.0,0.9,78,0.00,,BKN230,0.00,VWS V14.01,2013-01-07 08:11:00,
2013-01-07 02:15:00,44.4,38.0,30.33,NE,45,0.0,2.0,78,0.00,,BKN250,0.00,VWS V14.01,2013-01-07 08:15:00,
2013-01-07 02:16:00,44.2,37.8,30.33,ESE,112,0.0,0.0,78,0.00,,BKN230,0.00,VWS V14.01,2013-01-07 08:16:00,
2013-01-07 02:20:00,44.2,37.8,30.36,NNW,338,0.0,0.0,78,0.00,,BKN250,0.00,VWS V14.01,2013-01-07 08:20:00,
2013-01-07 02:21:00,44.2,37.8,30.36,NE,45,0.9,2.0,78,0.00,,BKN230,0.00,VWS V14.01,2013-01-07 08:21:00,
2013-01-07 02:25:00,44.1,37.7,30.36,NNW,338,0.0,2.0,78,0.00,,BKN250,0.00,VWS V14.01,2013-01-07 08:25:00,
2013-01-07 02:26:00,44.1,37.7,30.36,ENE,68,0.0,0.0,78,0.00,,BKN230,0.00,VWS V14.01,2013-01-07 08:26:00,
2013-01-07 02:30:00,44.1,37.7,30.36,NNE,22,0.0,0.0,78,0.00,,BKN250,0.00,VWS V14.01,2013-01-07 08:30:00,
2013-01-07 02:31:00,43.9,37.5,30.36,East,90,0.0,0.9,78,0.00,,BKN230,0.00,VWS V14.01,2013-01-07 08:31:00,
2013-01-07 02:35:00,43.7,37.3,30.33,WNW,292,0.0,0.9,78,0.00,,BKN250,0.00,VWS V14.01,2013-01-07 08:35:00,
2013-01-07 02:36:00,43.5,37.5,30.33,ESE,112,0.0,0.9,79,0.00,,BKN230,0.00,VWS V14.01,2013-01-07 08:36:00,
2013-01-07 02:40:00,43.5,37.5,30.33,ESE,112,0.0,0.9,79,0.00,,BKN250,0.00,VWS V14.01,2013-01-07 08:40:00,
2013-01-07 02:41:00,43.3,37.3,30.33,NNE,22,0.0,0.0,79,0.00,,BKN230,0.00,VWS V14.01,2013-01-07 08:41:00,
2013-01-07 02:45:00,43.3,37.3,30.33,ENE,68,0.0,0.0,79,0.00,,BKN250,0.00,VWS V14.01,2013-01-07 08:45:00,
2013-01-07 02:46:00,43.2,37.1,30.33,ESE,112,0.0,0.0,79,0.00,,BKN230,0.00,VWS V14.01,2013-01-07 08:46:00,
2013-01-07 02:50:00,43.0,36.9,30.33,NW,315,0.0,0.0,79,0.00,,BKN250,0.00,VWS V14.01,2013-01-07 08:50:00,
2013-01-07 02:51:00,43.0,36.9,30.33,WNW,292,0.0,0.9,79,0.00,,BKN230,0.00,VWS V14.01,2013-01-07 08:51:00,
2013-01-07 02:55:00,43.0,37.2,30.33,WNW,292,0.0,0.9,80,0.00,,BKN250,0.00,VWS V14.01,2013-01-07 08:55:00,
2013-01-07 02:56:00,42.8,37.1,30.33,NNW,338,1.3,1.3,80,0.00,,BKN230,0.00,VWS V14.01,2013-01-07 08:56:00,
2013-01-07 03:00:00,42.8,37.1,30.33,NNW,338,0.0,2.0,80,0.00,,BKN250,0.00,VWS V14.01,2013-01-07 09:00:00,
2013-01-07 03:01:00,42.8,37.1,30.33,WNW,292,0.0,2.0,80,0.00,,BKN230,0.00,VWS V14.01,2013-01-07 09:01:00,
2013-01-07 03:05:00,42.8,37.1,30.33,WNW,292,0.0,2.0,80,0.00,,BKN250,0.00,VWS V14.01,2013-01-07 09:05:00,
2013-01-07 03:06:00,42.8,37.1,30.33,WNW,292,0.0,0.0,80,0.00,,BKN230,0.00,VWS V14.01,2013-01-07 09:06:00,
2013-01-07 03:10:00,42.6,37.2,30.33,West,270,0.9,0.9,81,0.00,,BKN250,0.00,VWS V14.01,2013-01-07 09:10:00,
2013-01-07 03:11:00,42.6,37.2,30.33,NNW,338,0.0,1.6,81,0.00,,BKN230,0.00,VWS V14.01,2013-01-07 09:11:00,
2013-01-07 03:15:00,42.6,37.2,30.33,WNW,292,0.0,1.6,81,0.00,,BKN250,0.00,VWS V14.01,2013-01-07 09:15:00,
2013-01-07 03:16:00,42.4,37.3,30.33,NE,45,1.1,1.3,82,0.00,,BKN230,0.00,VWS V14.01,2013-01-07 09:16:00,
2013-01-07 03:20:00,42.4,37.3,30.33,WSW,248,0.0,2.7,82,0.00,,BKN250,0.00,VWS V14.01,2013-01-07 09:20:00,
2013-01-07 03:21:00,42.4,37.3,30.33,North,0,0.0,1.3,82,0.00,,BKN230,0.00,VWS V14.01,2013-01-07 09:21:00,
2013-01-07 03:25:00,42.4,37.3,30.33,NW,315,0.0,2.0,82,0.00,,BKN250,0.00,VWS V14.01,2013-01-07 09:25:00,
2013-01-07 03:26:00,42.4,37.3,30.33,WNW,292,0.0,0.0,82,0.00,,BKN230,0.00,VWS V14.01,2013-01-07 09:26:00,
2013-01-07 03:30:00,42.4,37.3,30.33,NW,315,0.0,1.3,82,0.00,,BKN250,0.00,VWS V14.01,2013-01-07 09:30:00,
2013-01-07 03:31:00,42.3,37.2,30.33,NNW,338,0.0,0.9,82,0.00,,BKN230,0.00,VWS V14.01,2013-01-07 09:31:00,
2013-01-07 03:35:00,42.3,37.2,30.33,NW,315,0.0,1.1,82,0.00,,BKN250,0.00,VWS V14.01,2013-01-07 09:35:00,
2013-01-07 03:37:00,42.3,37.2,30.33,WNW,292,0.0,1.1,82,0.00,,BKN230,0.00,VWS V14.01,2013-01-07 09:37:00,
2013-01-07 03:40:00,42.3,37.2,30.33,NW,315,0.9,1.3,82,0.00,,BKN250,0.00,VWS V14.01,2013-01-07 09:40:00,
2013-01-07 03:42:00,42.3,37.2,30.33,NNW,338,0.0,0.9,82,0.00,,BKN230,0.00,VWS V14.01,2013-01-07 09:42:00,
2013-01-07 03:45:00,42.1,37.0,30.33,West,270,0.0,2.0,82,0.00,,BKN250,0.00,VWS V14.01,2013-01-07 09:45:00,
2013-01-07 03:47:00,42.1,37.3,30.33,NE,45,0.0,1.1,83,0.00,,BKN230,0.00,VWS V14.01,2013-01-07 09:47:00,
2013-01-07 03:50:00,42.1,37.3,30.36,NNW,338,0.9,1.1,83,0.00,,BKN250,0.00,VWS V14.01,2013-01-07 09:50:00,
2013-01-07 03:52:00,42.1,37.3,30.36,ENE,68,0.0,1.3,83,0.00,,BKN230,0.00,VWS V14.01,2013-01-07 09:52:00,
2013-01-07 03:55:00,42.1,37.3,30.36,NW,315,0.0,1.3,83,0.00,,BKN250,0.00,VWS V14.01,2013-01-07 09:55:00,
2013-01-07 03:57:00,42.1,37.3,30.36,WNW,292,0.0,0.0,83,0.00,,BKN230,0.00,VWS V14.01,2013-01-07 09:57:00,
2013-01-07 04:00:00,42.1,37.3,30.36,WNW,292,0.0,0.0,83,0.00,,BKN250,0.00,VWS V14.01,2013-01-07 10:00:00,
2013-01-07 04:02:00,42.1,37.3,30.36,WNW,292,0.0,0.0,83,0.00,,FEW240,0.00,VWS V14.01,2013-01-07 10:02:00,
2013-01-07 04:05:00,41.9,37.1,30.36,North,0,0.0,0.0,83,0.00,,BKN250,0.00,VWS V14.01,2013-01-07 10:05:00,
2013-01-07 04:07:00,41.9,37.1,30.36,WNW,292,0.0,1.1,83,0.00,,FEW240,0.00,VWS V14.01,2013-01-07 10:07:00,
2013-01-07 04:10:00,41.9,37.1,30.36,NNW,338,1.6,1.6,83,0.00,,BKN250,0.00,VWS V14.01,2013-01-07 10:10:00,
2013-01-07 04:12:00,41.9,37.1,30.36,NNW,338,0.0,1.6,83,0.00,,FEW240,0.00,VWS V14.01,2013-01-07 10:12:00,
2013-01-07 04:15:00,41.9,37.1,30.36,WSW,248,0.0,2.0,83,0.00,,BKN250,0.00,VWS V14.01,2013-01-07 10:15:00,
2013-01-07 04:17:00,41.9,37.4,30.36,WNW,292,0.0,0.0,84,0.00,,FEW240,0.00,VWS V14.01,2013-01-07 10:17:00,
2013-01-07 04:20:00,41.9,37.4,30.36,NW,315,0.0,0.0,84,0.00,,BKN250,0.00,VWS V14.01,2013-01-07 10:20:00,
2013-01-07 04:22:00,41.9,37.1,30.36,East,90,0.0,0.0,83,0.00,,FEW240,0.00,VWS V14.01,2013-01-07 10:22:00,
2013-01-07 04:25:00,41.9,37.1,30.36,East,90,0.0,0.0,83,0.00,,BKN250,0.00,VWS V14.01,2013-01-07 10:25:00,
2013-01-07 04:27:00,41.9,37.4,30.36,NE,45,0.0,2.5,84,0.00,,FEW240,0.00,VWS V14.01,2013-01-07 10:27:00,
2013-01-07 04:30:00,41.9,37.4,30.36,NNW,338,0.0,2.5,84,0.00,,BKN250,0.00,VWS V14.01,2013-01-07 10:30:00,
2013-01-07 04:32:00,41.9,37.4,30.36,West,270,0.0,2.5,84,0.00,,FEW240,0.00,VWS V14.01,2013-01-07 10:32:00,
2013-01-07 04:35:00,41.9,37.4,30.36,NW,315,1.3,2.5,84,0.00,,BKN250,0.00,VWS V14.01,2013-01-07 10:35:00,
2013-01-07 04:37:00,41.9,37.4,30.36,West,270,0.0,2.2,84,0.00,,FEW240,0.00,VWS V14.01,2013-01-07 10:37:00,
2013-01-07 04:40:00,41.9,37.4,30.36,NW,315,1.1,2.2,84,0.00,,BKN250,0.00,VWS V14.01,2013-01-07 10:40:00,
2013-01-07 04:42:00,41.9,37.4,30.36,NNW,338,0.0,1.1,84,0.00,,FEW240,0.00,VWS V14.01,2013-01-07 10:42:00,
2013-01-07 04:45:00,41.9,37.4,30.36,NW,315,0.0,1.1,84,0.00,,BKN250,0.00,VWS V14.01,2013-01-07 10:45:00,
2013-01-07 04:47:00,41.9,37.4,30.36,WSW,248,0.9,1.6,84,0.00,,FEW240,0.00,VWS V14.01,2013-01-07 10:47:00,
2013-01-07 04:50:00,41.9,37.4,30.36,WNW,292,1.6,2.5,84,0.00,,BKN250,0.00,VWS V14.01,2013-01-07 10:50:00,
2013-01-07 04:53:00,41.9,37.4,30.36,SE,135,0.0,1.6,84,0.00,,FEW240,0.00,VWS V14.01,2013-01-07 10:53:00,
2013-01-07 04:55:00,41.9,37.4,30.36,SSE,158,0.0,1.6,84,0.00,,BKN250,0.00,VWS V14.01,2013-01-07 10:55:00,
2013-01-07 04:58:00,41.9,37.4,30.36,East,90,0.0,0.0,84,0.00,,FEW240,0.00,VWS V14.01,2013-01-07 10:58:00,
2013-01-07 05:00:00,41.9,37.4,30.36,NNW,338,0.0,0.0,84,0.00,,BKN250,0.00,VWS V14.01,2013-01-07 11:00:00,
2013-01-07 05:03:00,41.9,37.4,30.36,NNE,22,0.0,1.1,84,0.00,,FEW240,0.00,VWS V14.01,2013-01-07 11:03:00,
2013-01-07 05:05:00,41.9,37.4,30.36,ESE,112,1.3,1.3,84,0.00,,BKN250,0.00,VWS V14.01,2013-01-07 11:05:00,
2013-01-07 05:08:00,41.9,37.4,30.36,ESE,112,0.0,1.3,84,0.00,,FEW240,0.00,VWS V14.01,2013-01-07 11:08:00,
2013-01-07 05:10:00,41.9,37.4,30.36,ESE,112,0.0,1.3,84,0.00,,BKN250,0.00,VWS V14.01,2013-01-07 11:10:00,
2013-01-07 05:13:00,41.9,37.4,30.36,NW,315,0.0,0.9,84,0.00,,FEW240,0.00,VWS V14.01,2013-01-07 11:13:00,
2013-01-07 05:15:00,41.9,37.4,30.36,WNW,292,0.0,0.9,84,0.00,,BKN250,0.00,VWS V14.01,2013-01-07 11:15:00,
2013-01-07 05:18:00,41.7,37.2,30.36,NNW,338,0.0,0.0,84,0.00,,FEW240,0.00,VWS V14.01,2013-01-07 11:18:00,
2013-01-07 05:20:00,41.7,37.2,30.36,NNE,22,0.0,1.3,84,0.00,,BKN250,0.00,VWS V14.01,2013-01-07 11:20:00,
2013-01-07 05:23:00,41.7,37.2,30.36,WNW,292,0.0,1.6,84,0.00,,FEW240,0.00,VWS V14.01,2013-01-07 11:23:00,
2013-01-07 05:25:00,41.7,37.2,30.36,WNW,292,0.0,1.6,84,0.00,,BKN250,0.00,VWS V14.01,2013-01-07 11:25:00,
2013-01-07 05:28:00,41.7,37.2,30.36,East,90,0.0,0.0,84,0.00,,FEW240,0.00,VWS V14.01,2013-01-07 11:28:00,
2013-01-07 05:30:00,41.7,37.2,30.36,East,90,0.0,0.0,84,0.00,,BKN250,0.00,VWS V14.01,2013-01-07 11:30:00,
2013-01-07 05:33:00,41.7,37.2,30.36,East,90,0.0,0.0,84,0.00,,FEW240,0.00,VWS V14.01,2013-01-07 11:33:00,
2013-01-07 05:35:00,41.7,37.2,30.36,East,90,0.0,0.0,84,0.00,,BKN250,0.00,VWS V14.01,2013-01-07 11:35:00,
2013-01-07 05:38:00,41.5,37.1,30.36,East,90,0.0,0.0,84,0.00,,FEW240,0.00,VWS V14.01,2013-01-07 11:38:00,
2013-01-07 05:40:00,41.5,37.1,30.36,East,90,0.0,0.0,84,0.00,,BKN250,0.00,VWS V14.01,2013-01-07 11:40:00,
2013-01-07 05:43:00,41.5,37.1,30.36,East,90,0.0,0.0,84,0.00,,FEW240,0.00,VWS V14.01,2013-01-07 11:43:00,
2013-01-07 05:45:00,41.5,37.1,30.36,East,90,0.0,0.0,84,0.00,,BKN250,0.00,VWS V14.01,2013-01-07 11:45:00,
2013-01-07 05:48:00,41.4,36.9,30.36,ENE,68,0.0,0.0,84,0.00,,FEW240,0.00,VWS V14.01,2013-01-07 11:48:00,
2013-01-07 05:50:00,41.4,36.9,30.36,ENE,68,0.0,0.0,84,0.00,,BKN250,0.00,VWS V14.01,2013-01-07 11:50:00,
2013-01-07 05:53:00,41.2,36.7,30.36,ENE,68,0.0,0.0,84,0.00,,FEW240,0.00,VWS V14.01,2013-01-07 11:53:00,
2013-01-07 05:55:00,41.2,36.7,30.36,ENE,68,0.0,0.0,84,0.00,,BKN250,0.00,VWS V14.01,2013-01-07 11:55:00,
2013-01-07 05:59:00,41.2,36.7,30.36,ENE,68,0.0,0.0,84,0.00,,FEW240,0.00,VWS V14.01,2013-01-07 11:59:00,
2013-01-07 06:00:00,41.2,36.7,30.36,ENE,68,0.0,0.0,84,0.00,,BKN250,0.00,VWS V14.01,2013-01-07 12:00:00,
2013-01-07 06:04:00,41.0,36.5,30.36,SSE,158,0.0,0.0,84,0.00,,FEW240,0.00,VWS V14.01,2013-01-07 12:04:00,
2013-01-07 06:05:00,41.0,36.5,30.36,ENE,68,0.0,0.0,84,0.00,,BKN250,0.00,VWS V14.01,2013-01-07 12:05:00,
2013-01-07 06:09:00,41.0,36.5,30.36,WNW,292,0.0,0.0,84,0.00,,FEW240,0.00,VWS V14.01,2013-01-07 12:09:00,
2013-01-07 06:10:00,41.0,36.5,30.36,WNW,292,0.0,0.0,84,0.00,,BKN250,0.00,VWS V14.01,2013-01-07 12:10:00,
2013-01-07 06:14:00,40.8,36.7,30.36,South,180,0.0,0.0,85,0.00,,FEW240,0.00,VWS V14.01,2013-01-07 12:14:00,
2013-01-07 06:15:00,40.5,36.3,30.39,South,180,0.0,0.0,85,0.00,,BKN120,0.00,VWS V14.01,2013-01-07 12:15:00,
2013-01-07 06:19:00,40.8,36.7,30.36,NNW,338,0.0,0.0,85,0.00,,FEW240,0.00,VWS V14.01,2013-01-07 12:19:00,
2013-01-07 06:20:00,40.8,36.7,30.36,NW,315,0.0,0.0,85,0.00,,BKN250,0.00,VWS V14.01,2013-01-07 12:20:00,
2013-01-07 06:24:00,40.6,36.2,30.36,NNE,22,0.0,0.0,84,0.00,,FEW240,0.00,VWS V14.01,2013-01-07 12:24:00,
2013-01-07 06:25:00,40.6,36.2,30.36,ENE,68,0.0,0.0,84,0.00,,BKN250,0.00,VWS V14.01,2013-01-07 12:25:00,
2013-01-07 06:29:00,40.6,36.2,30.36,WNW,292,0.0,0.9,84,0.00,,FEW240,0.00,VWS V14.01,2013-01-07 12:29:00,
2013-01-07 06:30:00,40.6,36.2,30.36,WNW,292,0.0,0.9,84,0.00,,BKN250,0.00,VWS V14.01,2013-01-07 12:30:00,
2013-01-07 06:34:00,40.6,36.5,30.36,SSW,202,0.0,0.0,85,0.00,,FEW240,0.00,VWS V14.01,2013-01-07 12:34:00,
2013-01-07 06:35:00,40.6,36.5,30.36,NNW,338,0.0,1.1,85,0.00,,BKN250,0.00,VWS V14.01,2013-01-07 12:35:00,
2013-01-07 06:39:00,40.5,36.0,30.36,WNW,292,0.0,0.0,84,0.00,,FEW240,0.00,VWS V14.01,2013-01-07 12:39:00,
2013-01-07 06:40:00,40.6,36.5,30.36,NW,315,0.0,0.0,85,0.00,,BKN250,0.00,VWS V14.01,2013-01-07 12:40:00,
2013-01-07 06:44:00,40.5,36.3,30.36,NNW,338,0.0,0.0,85,0.00,,FEW240,0.00,VWS V14.01,2013-01-07 12:44:00,
2013-01-07 06:45:00,40.5,36.0,30.36,WSW,248,0.0,1.1,84,0.00,,BKN250,0.00,VWS V14.01,2013-01-07 12:45:00,
2013-01-07 06:50:00,40.5,36.3,30.36,WNW,292,0.0,0.0,85,0.00,,FEW240,0.00,VWS V14.01,2013-01-07 12:50:00,
2013-01-07 06:55:00,40.6,36.5,30.36,NNE,22,0.0,0.0,85,0.00,,FEW240,0.00,VWS V14.01,2013-01-07 12:55:00,
2013-01-07 07:00:00,40.5,36.3,30.36,NNE,22,0.9,0.9,85,0.00,,FEW240,0.00,VWS V14.01,2013-01-07 13:00:00,
2013-01-07 07:05:00,40.5,36.3,30.39,NNW,338,0.0,0.0,85,0.00,,FEW240,0.00,VWS V14.01,2013-01-07 13:05:00,
2013-01-07 07:10:00,40.5,36.3,30.39,WNW,292,0.0,0.0,85,0.00,,FEW240,0.00,VWS V14.01,2013-01-07 13:10:00,
2013-01-07 07:15:00,40.6,36.5,30.39,WSW,248,0.0,0.0,85,0.00,,FEW240,0.00,VWS V14.01,2013-01-07 13:15:00,
2013-01-07 07:20:00,40.8,36.7,30.39,West,270,0.0,0.9,85,0.00,,FEW240,0.00,VWS V14.01,2013-01-07 13:20:00,
2013-01-07 07:25:00,40.8,36.7,30.39,SE,135,0.0,0.0,85,0.00,,FEW240,0.00,VWS V14.01,2013-01-07 13:25:00,
2013-01-07 07:30:00,41.0,36.5,30.39,NNW,338,0.0,0.0,84,0.00,,FEW240,0.00,VWS V14.01,2013-01-07 13:30:00,
2013-01-07 07:35:00,41.0,36.5,30.39,South,180,0.0,0.0,84,0.00,,FEW240,0.00,VWS V14.01,2013-01-07 13:35:00,
2013-01-07 07:40:00,41.0,36.5,30.39,ESE,112,0.0,0.0,84,0.00,,FEW240,0.00,VWS V14.01,2013-01-07 13:40:00,
2013-01-07 07:45:00,41.2,37.0,30.39,ESE,112,0.0,0.0,85,0.00,,FEW240,0.00,VWS V14.01,2013-01-07 13:45:00,
2013-01-07 07:50:00,41.2,37.0,30.39,ESE,112,0.0,0.0,85,0.00,,FEW240,0.00,VWS V14.01,2013-01-07 13:50:00,
2013-01-07 07:55:00,41.7,37.2,30.39,ESE,112,0.0,0.0,84,0.00,,FEW240,0.00,VWS V14.01,2013-01-07 13:55:00,
2013-01-07 08:00:00,42.4,38.3,30.39,ESE,112,0.0,1.6,85,0.00,,FEW240,0.00,VWS V14.01,2013-01-07 14:00:00,
2013-01-07 08:05:00,43.0,38.5,30.39,ESE,112,1.6,1.6,84,0.00,,SCT210,0.00,VWS V14.01,2013-01-07 14:05:00,
2013-01-07 08:10:00,43.9,39.1,30.39,ENE,68,0.0,1.6,83,0.00,,SCT210,0.00,VWS V14.01,2013-01-07 14:10:00,
2013-01-07 08:15:00,44.1,39.2,30.39,NNE,22,0.0,2.0,83,0.00,,BKN250,0.00,VWS V14.01,2013-01-07 14:15:00,
2013-01-07 08:16:00,44.6,39.1,30.39,ESE,112,0.0,2.2,81,0.00,,SCT210,0.00,VWS V14.01,2013-01-07 14:16:00,
2013-01-07 08:20:00,45.0,39.5,30.36,NNE,22,1.6,2.2,81,0.00,,BKN250,0.00,VWS V14.01,2013-01-07 14:20:00,
2013-01-07 08:21:00,45.1,39.3,30.36,WNW,292,0.9,1.6,80,0.00,,SCT210,0.00,VWS V14.01,2013-01-07 14:21:00,
2013-01-07 08:25:00,45.3,39.2,30.36,ESE,112,0.0,3.4,79,0.00,,BKN250,0.00,VWS V14.01,2013-01-07 14:25:00,
2013-01-07 08:26:00,45.5,38.7,30.36,East,90,2.5,3.6,77,0.00,,SCT210,0.00,VWS V14.01,2013-01-07 14:26:00,
2013-01-07 08:30:00,45.7,38.6,30.36,South,180,0.0,3.6,76,0.00,,BKN250,0.00,VWS V14.01,2013-01-07 14:30:00,
2013-01-07 08:31:00,45.9,38.4,30.36,ESE,112,0.0,3.8,75,0.00,,SCT210,0.00,VWS V14.01,2013-01-07 14:31:00,
2013-01-07 08:35:00,45.9,38.4,30.39,ENE,68,0.9,3.8,75,0.00,,BKN250,0.00,VWS V14.01,2013-01-07 14:35:00,
2013-01-07 08:36:00,46.2,38.4,30.39,NNE,22,1.3,2.7,74,0.00,,SCT210,0.00,VWS V14.01,2013-01-07 14:36:00,
2013-01-07 08:40:00,46.4,38.6,30.39,SE,135,0.0,2.7,74,0.00,,BKN250,0.00,VWS V14.01,2013-01-07 14:40:00,
2013-01-07 08:41:00,46.6,38.8,30.39,NE,45,0.9,1.1,74,0.00,,SCT210,0.00,VWS V14.01,2013-01-07 14:41:00,
2013-01-07 08:45:00,46.9,38.4,30.39,North,0,2.7,3.4,72,0.00,,BKN250,0.00,VWS V14.01,2013-01-07 14:45:00,
2013-01-07 08:46:00,47.3,38.7,30.39,SSE,158,1.3,2.7,72,0.00,,SCT210,0.00,VWS V14.01,2013-01-07 14:46:00,
2013-01-07 08:50:00,47.3,38.7,30.39,East,90,2.5,3.4,72,0.00,,BKN250,0.00,VWS V14.01,2013-01-07 14:50:00,
2013-01-07 08:51:00,47.5,37.8,30.39,NNE,22,4.7,4.7,69,0.00,,SCT210,0.00,VWS V14.01,2013-01-07 14:51:00,
2013-01-07 08:55:00,47.7,38.0,30.39,ENE,68,1.6,4.7,69,0.00,,BKN250,0.00,VWS V14.01,2013-01-07 14:55:00,
2013-01-07 08:56:00,47.7,38.0,30.39,NNE,22,0.0,4.3,69,0.00,,SCT210,0.00,VWS V14.01,2013-01-07 14:56:00,
2013-01-07 09:00:00,52.3,35.7,30.39,NE,45,1.3,4.7,53,0.00,,BKN120,0.00,VWS V14.01,2013-01-07 15:00:00,
2013-01-07 09:01:00,48.0,38.0,30.39,NE,45,1.3,3.1,68,0.00,,SCT210,0.00,VWS V14.01,2013-01-07 15:01:00,
2013-01-07 09:05:00,48.2,37.4,30.39,ENE,68,2.7,3.1,66,0.00,,BKN250,0.00,VWS V14.01,2013-01-07 15:05:00,
2013-01-07 09:06:00,48.6,37.3,30.39,ENE,68,3.1,3.4,65,0.00,,SCT210,0.00,VWS V14.01,2013-01-07 15:06:00,
2013-01-07 09:10:00,48.7,36.7,30.39,NNW,338,1.3,3.4,63,0.00,,BKN250,0.00,VWS V14.01,2013-01-07 15:10:00,
2013-01-07 09:11:00,48.9,36.5,30.39,NNW,338,2.9,3.4,62,0.00,,SCT210,0.00,VWS V14.01,2013-01-07 15:11:00,
2013-01-07 09:15:00,49.1,36.7,30.39,NNW,338,2.0,3.4,62,0.00,,BKN250,0.00,VWS V14.01,2013-01-07 15:15:00,
2013-01-07 09:16:00,49.5,36.2,30.39,East,90,1.6,3.4,60,0.00,,SCT210,0.00,VWS V14.01,2013-01-07 15:16:00,
2013-01-07 09:20:00,49.6,35.9,30.39,ESE,112,2.0,3.8,59,0.00,,BKN250,0.00,VWS V14.01,2013-01-07 15:20:00,
2013-01-07 09:21:00,49.8,35.2,30.39,NNE,22,2.5,3.4,57,0.00,,SCT210,0.00,VWS V14.01,2013-01-07 15:21:00,
2013-01-07 09:25:00,50.0,34.5,30.39,NNE,22,4.0,4.9,55,0.00,,BKN250,0.00,VWS V14.01,2013-01-07 15:25:00,
2013-01-07 09:26:00,50.2,35.1,30.39,SSE,158,1.1,4.0,56,0.00,,SCT210,0.00,VWS V14.01,2013-01-07 15:26:00,
2013-01-07 09:30:00,50.2,34.7,30.39,ESE,112,4.0,4.3,55,0.00,,BKN250,0.00,VWS V14.01,2013-01-07 15:30:00,
2013-01-07 09:31:00,50.4,35.3,30.39,ESE,112,2.0,4.0,56,0.00,,SCT210,0.00,VWS V14.01,2013-01-07 15:31:00,
2013-01-07 09:35:00,50.5,35.4,30.39,NNE,22,2.0,4.3,56,0.00,,BKN250,0.00,VWS V14.01,2013-01-07 15:35:00,
2013-01-07 09:36:00,50.9,35.8,30.39,ESE,112,0.9,2.7,56,0.00,,SCT210,0.00,VWS V14.01,2013-01-07 15:36:00,
2013-01-07 09:40:00,51.1,36.4,30.39,ESE,112,2.9,2.9,57,0.00,,BKN250,0.00,VWS V14.01,2013-01-07 15:40:00,
2013-01-07 09:41:00,51.4,36.3,30.39,East,90,0.0,4.3,56,0.00,,SCT210,0.00,VWS V14.01,2013-01-07 15:41:00,
2013-01-07 09:45:00,51.4,36.7,30.39,NNE,22,0.0,4.3,57,0.00,,BKN250,0.00,VWS V14.01,2013-01-07 15:45:00,
2013-01-07 09:46:00,51.6,35.5,30.39,ESE,112,2.5,3.4,54,0.00,,SCT210,0.00,VWS V14.01,2013-01-07 15:46:00,
2013-01-07 09:50:00,51.8,35.7,30.39,NNE,22,2.7,3.4,54,0.00,,BKN250,0.00,VWS V14.01,2013-01-07 15:50:00,
2013-01-07 09:52:00,52.0,35.9,30.39,NNW,338,3.6,3.6,54,0.00,,SCT210,0.00,VWS V14.01,2013-01-07 15:52:00,
2013-01-07 09:55:00,52.2,35.6,30.39,East,90,1.6,3.6,53,0.00,,BKN250,0.00,VWS V14.01,2013-01-07 15:55:00,
2013-01-07 09:57:00,52.2,35.1,30.39,NNE,22,2.0,4.7,52,0.00,,SCT210,0.00,VWS V14.01,2013-01-07 15:57:00,
2013-01-07 10:00:00,52.3,35.7,30.39,NE,45,1.3,4.7,53,0.00,,BKN250,0.00,VWS V14.01,2013-01-07 16:00:00,
2013-01-07 10:02:00,52.5,34.9,30.39,ENE,68,4.3,4.9,51,0.00,,SCT210,0.00,VWS V14.01,2013-01-07 16:02:00,
2013-01-07 10:05:00,52.5,34.9,30.39,NNE,22,1.3,4.9,51,0.00,,BKN250,0.00,VWS V14.01,2013-01-07 16:05:00,
2013-01-07 10:07:00,52.9,34.8,30.39,NNE,22,1.3,3.8,50,0.00,,SCT210,0.00,VWS V14.01,2013-01-07 16:07:00,
2013-01-07 10:10:00,52.9,34.8,30.39,NNW,338,3.1,4.7,50,0.00,,BKN250,0.00,VWS V14.01,2013-01-07 16:10:00,
2013-01-07 10:12:00,53.1,35.4,30.39,NNE,22,2.0,4.3,51,0.00,,SCT210,0.00,VWS V14.01,2013-01-07 16:12:00,
2013-01-07 10:15:00,56.3,35.8,30.36,ENE,68,2.0,5.6,46,0.00,,BKN120,0.00,VWS V14.01,2013-01-07 16:15:00,
2013-01-07 10:17:00,53.2,35.1,30.39,ESE,112,3.1,4.5,50,0.00,,SCT210,0.00,VWS V14.01,2013-01-07 16:17:00,
2013-01-07 10:20:00,53.2,35.1,30.36,WNW,292,1.1,4.5,50,0.00,,BKN250,0.00,VWS V14.01,2013-01-07 16:20:00,
2013-01-07 10:22:00,53.2,35.1,30.36,ENE,68,3.1,6.3,50,0.00,,SCT210,0.00,VWS V14.01,2013-01-07 16:22:00,
2013-01-07 10:25:00,53.6,34.9,30.36,East,90,1.3,6.3,49,0.00,,BKN250,0.00,VWS V14.01,2013-01-07 16:25:00,
2013-01-07 10:27:00,53.6,34.9,30.36,NE,45,2.9,3.4,49,0.00,,SCT210,0.00,VWS V14.01,2013-01-07 16:27:00,
2013-01-07 10:30:00,53.8,34.6,30.36,SE,135,1.6,3.4,48,0.00,,BKN250,0.00,VWS V14.01,2013-01-07 16:30:00,
2013-01-07 10:32:00,54.0,35.2,30.36,ENE,68,1.3,3.4,49,0.00,,SCT210,0.00,VWS V14.01,2013-01-07 16:32:00,
2013-01-07 10:35:00,54.1,35.4,30.39,NNW,338,1.6,3.4,49,0.00,,BKN250,0.00,VWS V14.01,2013-01-07 16:35:00,
2013-01-07 10:37:00,54.3,35.1,30.39,ENE,68,2.5,4.3,48,0.00,,SCT210,0.00,VWS V14.01,2013-01-07 16:37:00,
2013-01-07 10:40:00,54.5,35.8,30.39,WSW,248,0.0,4.3,49,0.00,,BKN250,0.00,VWS V14.01,2013-01-07 16:40:00,
2013-01-07 10:42:00,54.5,35.2,30.39,ESE,112,1.3,3.1,48,0.00,,SCT210,0.00,VWS V14.01,2013-01-07 16:42:00,
2013-01-07 10:45:00,54.5,35.2,30.39,East,90,0.0,3.1,48,0.00,,BKN250,0.00,VWS V14.01,2013-01-07 16:45:00,
2013-01-07 10:47:00,54.7,35.4,30.39,NE,45,0.0,4.3,48,0.00,,SCT210,0.00,VWS V14.01,2013-01-07 16:47:00,
2013-01-07 10:50:00,54.7,35.4,30.39,ESE,112,0.0,4.3,48,0.00,,BKN250,0.00,VWS V14.01,2013-01-07 16:50:00,
2013-01-07 10:52:00,55.0,35.7,30.39,ESE,112,2.0,3.8,48,0.00,,SCT210,0.00,VWS V14.01,2013-01-07 16:52:00,
2013-01-07 10:55:00,55.0,35.2,30.39,NW,315,5.4,5.4,47,0.00,,BKN250,0.00,VWS V14.01,2013-01-07 16:55:00,
2013-01-07 10:57:00,55.2,35.9,30.39,East,90,1.3,5.8,48,0.00,,SCT210,0.00,VWS V14.01,2013-01-07 16:57:00,
2013-01-07 11:00:00,55.4,35.5,30.39,NE,45,2.5,5.8,47,0.00,,BKN250,0.00,VWS V14.01,2013-01-07 17:00:00,
2013-01-07 11:02:00,55.6,35.2,30.39,East,90,2.0,4.3,46,0.00,,SCT210,0.00,VWS V14.01,2013-01-07 17:02:00,
2013-01-07 11:05:00,55.6,35.2,30.36,ENE,68,1.3,4.3,46,0.00,,BKN250,0.00,VWS V14.01,2013-01-07 17:05:00,
2013-01-07 11:07:00,55.9,36.0,30.36,WNW,292,2.7,2.7,47,0.00,,SCT210,0.00,VWS V14.01,2013-01-07 17:07:00,
2013-01-07 11:10:00,56.1,35.6,30.36,NNW,338,2.5,5.8,46,0.00,,BKN250,0.00,VWS V14.01,2013-01-07 17:10:00,
2013-01-07 11:12:00,56.3,35.8,30.36,NE,45,5.6,5.6,46,0.00,,SCT210,0.00,VWS V14.01,2013-01-07 17:12:00,
2013-01-07 11:15:00,56.3,35.8,30.36,ENE,68,2.0,5.6,46,0.00,,BKN250,0.00,VWS V14.01,2013-01-07 17:15:00,
2013-01-07 11:17:00,56.5,36.0,30.36,ENE,68,2.2,4.0,46,0.00,,SCT210,0.00,VWS V14.01,2013-01-07 17:17:00,
2013-01-07 11:20:00,56.7,36.1,30.36,ENE,68,2.2,4.0,46,0.00,,BKN250,0.00,VWS V14.01,2013-01-07 17:20:00,
2013-01-07 11:22:00,56.8,36.3,30.36,SSW,202,4.0,4.0,46,0.00,,SCT210,0.00,VWS V14.01,2013-01-07 17:22:00,
2013-01-07 11:25:00,56.8,36.3,30.36,SE,135,1.6,4.0,46,0.00,,BKN250,0.00,VWS V14.01,2013-01-07 17:25:00,
2013-01-07 11:27:00,57.0,36.5,30.36,NNE,22,1.1,3.4,46,0.00,,SCT210,0.00,VWS V14.01,2013-01-07 17:27:00,
2013-01-07 11:30:00,57.0,36.5,30.36,NNE,22,2.2,3.4,46,0.00,,BKN250,0.00,VWS V14.01,2013-01-07 17:30:00,
2013-01-07 11:32:00,57.4,36.2,30.36,ESE,112,0.9,2.7,45,0.00,,SCT210,0.00,VWS V14.01,2013-01-07 17:32:00,
2013-01-07 11:35:00,57.4,36.8,30.36,ESE,112,0.0,2.7,46,0.00,,BKN250,0.00,VWS V14.01,2013-01-07 17:35:00,
2013-01-07 11:37:00,57.6,36.4,30.36,SE,135,1.6,5.8,45,0.00,,SCT210,0.00,VWS V14.01,2013-01-07 17:37:00,
2013-01-07 11:40:00,57.6,36.4,30.36,ESE,112,2.5,5.8,45,0.00,,BKN250,0.00,VWS V14.01,2013-01-07 17:40:00,
2013-01-07 11:42:00,57.7,36.6,30.36,NNE,22,2.5,4.3,45,0.00,,SCT210,0.00,VWS V14.01,2013-01-07 17:42:00,
2013-01-07 11:45:00,57.7,36.6,30.36,NE,45,3.1,4.3,45,0.00,,BKN250,0.00,VWS V14.01,2013-01-07 17:45:00,
2013-01-07 11:48:00,57.9,36.7,30.36,NNW,338,1.3,4.7,45,0.00,,SCT210,0.00,VWS V14.01,2013-01-07 17:48:00,
2013-01-07 11:50:00,57.9,36.7,30.33,East,90,2.5,4.7,45,0.00,,BKN250,0.00,VWS V14.01,2013-01-07 17:50:00,
2013-01-07 11:53:00,58.1,36.3,30.33,NNE,22,1.3,3.1,44,0.00,,SCT210,0.00,VWS V14.01,2013-01-07 17:53:00,
2013-01-07 11:55:00,58.1,36.3,30.33,NNW,338,2.2,3.1,44,0.00,,BKN250,0.00,VWS V14.01,2013-01-07 17:55:00,
2013-01-07 11:58:00,58.1,36.3,30.33,NNW,338,1.6,3.4,44,0.00,,SCT210,0.00,VWS V14.01,2013-01-07 17:58:00,
2013-01-07 12:00:00,58.1,36.3,30.33,NE,45,3.1,3.4,44,0.00,,BKN250,0.00,VWS V14.01,2013-01-07 18:00:00,
2013-01-07 12:03:00,58.5,36.7,30.33,ESE,112,2.0,3.6,44,0.00,,FEW210,0.00,VWS V14.01,2013-01-07 18:03:00,
2013-01-07 12:05:00,58.5,36.7,30.33,ENE,68,3.1,3.6,44,0.00,,BKN250,0.00,VWS V14.01,2013-01-07 18:05:00,
2013-01-07 12:08:00,58.6,36.2,30.33,ENE,68,1.1,3.1,43,0.00,,FEW210,0.00,VWS V14.01,2013-01-07 18:08:00,
2013-01-07 12:10:00,58.6,36.2,30.33,East,90,0.0,3.1,43,0.00,,BKN250,0.00,VWS V14.01,2013-01-07 18:10:00,
2013-01-07 12:13:00,58.8,36.4,30.33,WNW,292,2.0,2.9,43,0.00,,FEW210,0.00,VWS V14.01,2013-01-07 18:13:00,
2013-01-07 12:15:00,58.8,36.4,30.33,WNW,292,1.1,2.9,43,0.00,,BKN250,0.00,VWS V14.01,2013-01-07 18:15:00,
2013-01-07 12:18:00,58.8,35.8,30.33,NE,45,2.0,4.7,42,0.00,,FEW210,0.00,VWS V14.01,2013-01-07 18:18:00,
2013-01-07 12:20:00,58.8,35.8,30.30,NNW,338,1.6,4.7,42,0.00,,BKN250,0.00,VWS V14.01,2013-01-07 18:20:00,
2013-01-07 12:23:00,58.8,36.4,30.30,WNW,292,0.0,3.8,43,0.00,,FEW210,0.00,VWS V14.01,2013-01-07 18:23:00,
2013-01-07 12:25:00,58.8,36.4,30.30,WNW,292,0.0,3.8,43,0.00,,BKN250,0.00,VWS V14.01,2013-01-07 18:25:00,
2013-01-07 12:28:00,59.0,36.6,30.30,ESE,112,0.0,2.5,43,0.00,,FEW210,0.00,VWS V14.01,2013-01-07 18:28:00,
2013-01-07 12:30:00,59.0,36.6,30.30,ESE,112,0.0,2.5,43,0.00,,BKN250,0.00,VWS V14.01,2013-01-07 18:30:00,
2013-01-07 12:33:00,59.2,36.7,30.30,NNE,22,2.9,2.9,43,0.00,,FEW210,0.00,VWS V14.01,2013-01-07 18:33:00,
2013-01-07 12:35:00,59.2,36.7,30.30,NNE,22,2.9,2.9,43,0.00,,BKN250,0.00,VWS V14.01,2013-01-07 18:35:00,
2013-01-07 12:38:00,59.4,36.9,30.30,NNE,22,0.0,2.9,43,0.00,,FEW210,0.00,VWS V14.01,2013-01-07 18:38:00,
2013-01-07 12:40:00,59.4,36.9,30.30,WNW,292,1.6,2.9,43,0.00,,BKN250,0.00,VWS V14.01,2013-01-07 18:40:00,
2013-01-07 12:43:00,59.7,37.2,30.30,WSW,248,1.1,2.9,43,0.00,,FEW210,0.00,VWS V14.01,2013-01-07 18:43:00,
2013-01-07 12:45:00,59.7,37.2,30.30,WSW,248,1.1,2.9,43,0.00,,BKN250,0.00,VWS V14.01,2013-01-07 18:45:00,
2013-01-07 12:48:00,60.1,36.9,30.33,SE,135,0.0,3.8,42,0.00,,FEW210,0.00,VWS V14.01,2013-01-07 18:48:00,
2013-01-07 12:50:00,60.1,36.9,30.33,SE,135,0.0,3.8,42,0.00,,BKN250,0.00,VWS V14.01,2013-01-07 18:50:00,
2013-01-07 12:53:00,60.4,37.3,30.33,NE,45,1.1,2.2,42,0.00,,FEW210,0.00,VWS V14.01,2013-01-07 18:53:00,
2013-01-07 12:55:00,60.4,37.3,30.33,NE,45,1.1,2.2,42,0.00,,BKN250,0.00,VWS V14.01,2013-01-07 18:55:00,
2013-01-07 12:58:00,60.4,36.7,30.33,NNW,338,1.6,3.6,41,0.00,,FEW210,0.00,VWS V14.01,2013-01-07 18:58:00,
2013-01-07 13:00:00,60.4,36.7,30.33,NNW,338,1.6,3.6,41,0.00,,BKN250,0.00,VWS V14.01,2013-01-07 19:00:00,
2013-01-07 13:03:00,60.6,37.4,30.33,NNW,338,0.0,2.5,42,0.00,,FEW210,0.00,VWS V14.01,2013-01-07 19:03:00,
2013-01-07 13:05:00,60.6,37.4,30.33,NNW,338,0.0,2.5,42,0.00,,BKN250,0.00,VWS V14.01,2013-01-07 19:05:00,
2013-01-07 13:08:00,60.6,37.4,30.33,North,0,2.2,2.5,42,0.00,,FEW210,0.00,VWS V14.01,2013-01-07 19:08:00,
2013-01-07 13:10:00,60.6,37.4,30.33,North,0,2.2,2.5,42,0.00,,BKN250,0.00,VWS V14.01,2013-01-07 19:10:00,
2013-01-07 13:13:00,60.6,36.8,30.33,NNW,338,2.9,3.6,41,0.00,,FEW210,0.00,VWS V14.01,2013-01-07 19:13:00,
2013-01-07 13:15:00,60.6,36.8,30.33,NNW,338,2.9,3.6,41,0.00,,BKN250,0.00,VWS V14.01,2013-01-07 19:15:00,
2013-01-07 13:18:00,60.4,35.4,30.30,ENE,68,2.7,4.0,39,0.00,,FEW210,0.00,VWS V14.01,2013-01-07 19:18:00,
2013-01-07 13:20:00,60.4,35.4,30.30,ENE,68,2.7,4.0,39,0.00,,BKN250,0.00,VWS V14.01,2013-01-07 19:20:00,
2013-01-07 13:23:00,60.6,36.2,30.30,East,90,2.7,3.8,40,0.00,,FEW210,0.00,VWS V14.01,2013-01-07 19:23:00,
2013-01-07 13:25:00,60.6,36.2,30.30,East,90,2.7,3.8,40,0.00,,BKN250,0.00,VWS V14.01,2013-01-07 19:25:00,
2013-01-07 13:28:00,60.8,36.3,30.30,NNW,338,2.2,3.6,40,0.00,,FEW210,0.00,VWS V14.01,2013-01-07 19:28:00,
2013-01-07 13:30:00,60.8,36.3,30.30,NNW,338,2.2,3.6,40,0.00,,BKN250,0.00,VWS V14.01,2013-01-07 19:30:00,
2013-01-07 13:33:00,61.2,36.7,30.33,WNW,292,1.3,3.4,40,0.00,,FEW210,0.00,VWS V14.01,2013-01-07 19:33:00,
2013-01-07 13:35:00,61.2,36.7,30.33,WNW,292,1.3,3.4,40,0.00,,BKN250,0.00,VWS V14.01,2013-01-07 19:35:00,
2013-01-07 13:38:00,61.0,35.2,30.33,East,90,1.6,3.6,38,0.00,,FEW210,0.00,VWS V14.01,2013-01-07 19:38:00,
2013-01-07 13:40:00,61.0,35.2,30.33,East,90,1.6,3.6,38,0.00,,BKN250,0.00,VWS V14.01,2013-01-07 19:40:00,
2013-01-07 13:43:00,61.2,36.0,30.33,ESE,112,3.6,4.9,39,0.00,,FEW210,0.00,VWS V14.01,2013-01-07 19:43:00,
2013-01-07 13:45:00,61.2,36.0,30.33,ESE,112,3.6,4.9,39,0.00,,BKN250,0.00,VWS V14.01,2013-01-07 19:45:00,
2013-01-07 13:48:00,61.3,36.2,30.33,NNE,22,2.5,4.3,39,0.00,,FEW210,0.00,VWS V14.01,2013-01-07 19:48:00,
2013-01-07 13:50:00,61.3,36.2,30.33,NNE,22,2.5,4.3,39,0.00,,BKN250,0.00,VWS V14.01,2013-01-07 19:50:00,
2013-01-07 13:53:00,61.3,36.2,30.33,WNW,292,2.0,4.5,39,0.00,,FEW210,0.00,VWS V14.01,2013-01-07 19:53:00,
2013-01-07 13:55:00,61.3,36.2,30.33,WNW,292,2.0,4.5,39,0.00,,BKN250,0.00,VWS V14.01,2013-01-07 19:55:00,
2013-01-07 13:58:00,61.3,36.2,30.33,WNW,292,0.0,3.1,39,0.00,,FEW210,0.00,VWS V14.01,2013-01-07 19:58:00,
2013-01-07 14:00:00,61.3,36.2,30.33,WNW,292,0.0,3.1,39,0.00,,BKN250,0.00,VWS V14.01,2013-01-07 20:00:00,
2013-01-07 14:03:00,61.2,36.0,30.33,East,90,1.3,2.2,39,0.00,,FEW210,0.00,VWS V14.01,2013-01-07 20:03:00,
2013-01-07 14:05:00,61.2,36.0,30.33,East,90,1.3,2.2,39,0.00,,BKN250,0.00,VWS V14.01,2013-01-07 20:05:00,
2013-01-07 14:08:00,61.2,36.0,30.33,East,90,0.0,3.6,39,0.00,,FEW210,0.00,VWS V14.01,2013-01-07 20:08:00,
2013-01-07 14:10:00,61.2,36.0,30.33,East,90,0.0,3.6,39,0.00,,BKN250,0.00,VWS V14.01,2013-01-07 20:10:00,
2013-01-07 14:13:00,61.0,35.9,30.33,NW,315,0.0,3.1,39,0.00,,FEW210,0.00,VWS V14.01,2013-01-07 20:13:00,
2013-01-07 14:15:00,61.0,35.9,30.33,NW,315,0.0,3.1,39,0.00,,BKN250,0.00,VWS V14.01,2013-01-07 20:15:00,
2013-01-07 14:18:00,61.0,35.9,30.33,ENE,68,0.0,2.7,39,0.00,,FEW210,0.00,VWS V14.01,2013-01-07 20:18:00,
2013-01-07 14:20:00,61.0,35.9,30.33,ENE,68,0.0,2.7,39,0.00,,BKN250,0.00,VWS V14.01,2013-01-07 20:20:00,
2013-01-07 14:22:00,61.0,35.9,30.33,East,90,1.6,2.5,39,0.00,,FEW210,0.00,VWS V14.01,2013-01-07 20:22:00,
2013-01-07 14:25:00,61.0,36.5,30.33,NNE,22,2.0,2.5,40,0.00,,BKN250,0.00,VWS V14.01,2013-01-07 20:25:00,
2013-01-07 14:27:00,61.0,36.5,30.33,ESE,112,0.0,2.7,40,0.00,,FEW210,0.00,VWS V14.01,2013-01-07 20:27:00,
2013-01-07 14:30:00,61.0,36.5,30.33,SE,135,2.2,2.7,40,0.00,,BKN250,0.00,VWS V14.01,2013-01-07 20:30:00,
2013-01-07 14:32:00,60.8,35.7,30.33,ESE,112,0.0,4.9,39,0.00,,FEW210,0.00,VWS V14.01,2013-01-07 20:32:00,
2013-01-07 14:35:00,60.8,35.7,30.33,NNE,22,2.0,4.9,39,0.00,,BKN250,0.00,VWS V14.01,2013-01-07 20:35:00,
2013-01-07 14:37:00,60.4,35.4,30.33,ENE,68,0.0,3.4,39,0.00,,FEW210,0.00,VWS V14.01,2013-01-07 20:37:00,
2013-01-07 14:40:00,60.4,35.4,30.33,NNE,22,1.3,3.4,39,0.00,,BKN250,0.00,VWS V14.01,2013-01-07 20:40:00,
2013-01-07 14:42:00,60.3,35.2,30.33,ENE,68,0.0,2.2,39,0.00,,FEW210,0.00,VWS V14.01,2013-01-07 20:42:00,
2013-01-07 14:45:00,60.3,35.2,30.33,ENE,68,0.0,2.2,39,0.00,,BKN250,0.00,VWS V14.01,2013-01-07 20:45:00,
2013-01-07 14:47:00,60.1,35.7,30.33,NW,315,2.0,2.2,40,0.00,,FEW210,0.00,VWS V14.01,2013-01-07 20:47:00,
2013-01-07 14:50:00,60.1,35.1,30.33,SE,135,2.2,2.2,39,0.00,,BKN250,0.00,VWS V14.01,2013-01-07 20:50:00,
2013-01-07 14:52:00,60.1,35.1,30.33,East,90,2.2,3.4,39,0.00,,FEW210,0.00,VWS V14.01,2013-01-07 20:52:00,
2013-01-07 14:55:00,60.1,35.1,30.33,East,90,0.0,3.4,39,0.00,,BKN250,0.00,VWS V14.01,2013-01-07 20:55:00,
2013-01-07 14:57:00,60.1,35.1,30.33,ENE,68,0.9,2.9,39,0.00,,FEW210,0.00,VWS V14.01,2013-01-07 20:57:00,
2013-01-07 15:00:00,60.1,35.1,30.33,ENE,68,1.6,2.9,39,0.00,,BKN250,0.00,VWS V14.01,2013-01-07 21:00:00,
2013-01-07 15:03:00,59.9,34.9,30.33,ENE,68,0.0,2.5,39,0.00,,FEW210,0.00,VWS V14.01,2013-01-07 21:03:00,
2013-01-07 15:05:00,58.3,35.3,30.33,NNW,338,0.0,2.7,42,0.00,,BKN120,0.00,VWS V14.01,2013-01-07 21:05:00,
2013-01-07 15:08:00,59.7,35.4,30.33,North,0,0.0,2.5,40,0.00,,FEW210,0.00,VWS V14.01,2013-01-07 21:08:00,
2013-01-07 15:10:00,59.7,35.4,30.33,NNE,22,1.6,2.5,40,0.00,,BKN250,0.00,VWS V14.01,2013-01-07 21:10:00,
2013-01-07 15:13:00,59.7,34.7,30.33,ENE,68,0.0,2.7,39,0.00,,FEW210,0.00,VWS V14.01,2013-01-07 21:13:00,
2013-01-07 15:15:00,59.7,34.7,30.33,ENE,68,1.3,2.7,39,0.00,,BKN250,0.00,VWS V14.01,2013-01-07 21:15:00,
2013-01-07 15:18:00,59.7,34.7,30.33,East,90,0.0,3.4,39,0.00,,FEW210,0.00,VWS V14.01,2013-01-07 21:18:00,
2013-01-07 15:20:00,59.7,34.7,30.33,East,90,0.0,3.4,39,0.00,,BKN250,0.00,VWS V14.01,2013-01-07 21:20:00,
2013-01-07 15:23:00,59.7,35.4,30.33,ENE,68,0.0,2.0,40,0.00,,FEW210,0.00,VWS V14.01,2013-01-07 21:23:00,
2013-01-07 15:25:00,59.7,35.4,30.33,NW,315,0.9,2.0,40,0.00,,BKN250,0.00,VWS V14.01,2013-01-07 21:25:00,
2013-01-07 15:28:00,59.5,35.2,30.33,East,90,0.0,2.5,40,0.00,,FEW210,0.00,VWS V14.01,2013-01-07 21:28:00,
2013-01-07 15:30:00,59.5,35.2,30.33,East,90,0.0,2.5,40,0.00,,BKN250,0.00,VWS V14.01,2013-01-07 21:30:00,
2013-01-07 15:33:00,59.2,34.9,30.33,East,90,1.1,1.6,40,0.00,,FEW210,0.00,VWS V14.01,2013-01-07 21:33:00,
2013-01-07 15:35:00,59.2,34.9,30.33,East,90,0.0,1.6,40,0.00,,BKN250,0.00,VWS V14.01,2013-01-07 21:35:00,
2013-01-07 15:38:00,59.0,34.7,30.33,South,180,0.0,0.0,40,0.00,,FEW210,0.00,VWS V14.01,2013-01-07 21:38:00,
2013-01-07 15:40:00,59.0,34.7,30.33,SSE,158,0.0,0.0,40,0.00,,BKN250,0.00,VWS V14.01,2013-01-07 21:40:00,
2013-01-07 15:43:00,58.8,35.2,30.33,NNW,338,0.0,2.7,41,0.00,,FEW210,0.00,VWS V14.01,2013-01-07 21:43:00,
2013-01-07 15:45:00,58.8,35.2,30.33,NNE,22,2.9,2.9,41,0.00,,BKN250,0.00,VWS V14.01,2013-01-07 21:45:00,
2013-01-07 15:48:00,59.0,35.3,30.33,ENE,68,1.1,3.1,41,0.00,,FEW210,0.00,VWS V14.01,2013-01-07 21:48:00,
2013-01-07 15:50:00,59.0,35.3,30.33,ENE,68,1.1,3.1,41,0.00,,BKN250,0.00,VWS V14.01,2013-01-07 21:50:00,
2013-01-07 15:53:00,58.8,35.2,30.33,ENE,68,0.0,1.6,41,0.00,,FEW210,0.00,VWS V14.01,2013-01-07 21:53:00,
2013-01-07 15:55:00,58.8,35.2,30.33,ENE,68,2.0,2.0,41,0.00,,BKN250,0.00,VWS V14.01,2013-01-07 21:55:00,
2013-01-07 15:58:00,58.6,35.0,30.33,SSE,158,1.1,3.1,41,0.00,,FEW210,0.00,VWS V14.01,2013-01-07 21:58:00,
2013-01-07 16:00:00,58.6,35.0,30.33,SSE,158,1.1,3.1,41,0.00,,BKN250,0.00,VWS V14.01,2013-01-07 22:00:00,
2013-01-07 16:03:00,58.3,35.3,30.33,NNW,338,0.0,2.7,42,0.00,,FEW120,0.00,VWS V14.01,2013-01-07 22:03:00,
2013-01-07 16:05:00,58.3,35.3,30.33,NNW,338,0.0,2.7,42,0.00,,BKN250,0.00,VWS V14.01,2013-01-07 22:05:00,
2013-01-07 16:08:00,58.1,35.2,30.30,NNE,22,0.0,2.9,42,0.00,,FEW120,0.00,VWS V14.01,2013-01-07 22:08:00,
2013-01-07 16:10:00,58.1,35.2,30.30,NNE,22,0.0,2.9,42,0.00,,BKN250,0.00,VWS V14.01,2013-01-07 22:10:00,
2013-01-07 16:13:00,57.9,35.0,30.30,ENE,68,2.0,2.7,42,0.00,,FEW120,0.00,VWS V14.01,2013-01-07 22:13:00,
2013-01-07 16:15:00,57.9,35.0,30.30,ENE,68,2.0,2.7,42,0.00,,BKN250,0.00,VWS V14.01,2013-01-07 22:15:00,
2013-01-07 16:18:00,57.6,35.2,30.33,East,90,0.0,2.5,43,0.00,,FEW120,0.00,VWS V14.01,2013-01-07 22:18:00,
2013-01-07 16:20:00,57.6,35.2,30.33,East,90,0.0,2.5,43,0.00,,BKN250,0.00,VWS V14.01,2013-01-07 22:20:00,
2013-01-07 16:23:00,57.4,35.1,30.33,ESE,112,0.0,2.9,43,0.00,,FEW120,0.00,VWS V14.01,2013-01-07 22:23:00,
2013-01-07 16:25:00,57.4,35.1,30.33,ESE,112,0.0,2.9,43,0.00,,BKN250,0.00,VWS V14.01,2013-01-07 22:25:00,
2013-01-07 16:28:00,57.0,35.3,30.33,East,90,2.0,2.2,44,0.00,,FEW120,0.00,VWS V14.01,2013-01-07 22:28:00,
2013-01-07 16:30:00,57.0,35.3,30.33,East,90,2.0,2.2,44,0.00,,BKN250,0.00,VWS V14.01,2013-01-07 22:30:00,
2013-01-07 16:33:00,56.8,35.2,30.33,ENE,68,0.9,3.1,44,0.00,,FEW120,0.00,VWS V14.01,2013-01-07 22:33:00,
2013-01-07 16:35:00,56.8,35.2,30.33,ENE,68,0.9,3.1,44,0.00,,BKN250,0.00,VWS V14.01,2013-01-07 22:35:00,
2013-01-07 16:38:00,56.7,35.0,30.33,NNW,338,0.0,2.9,44,0.00,,FEW120,0.00,VWS V14.01,2013-01-07 22:38:00,
2013-01-07 16:40:00,56.7,35.0,30.33,NNW,338,0.0,2.9,44,0.00,,BKN250,0.00,VWS V14.01,2013-01-07 22:40:00,
2013-01-07 16:43:00,56.1,35.1,30.33,NE,45,0.0,1.1,45,0.00,,FEW120,0.00,VWS V14.01,2013-01-07 22:43:00,
2013-01-07 16:45:00,56.1,35.1,30.33,NE,45,0.0,1.1,45,0.00,,BKN250,0.00,VWS V14.01,2013-01-07 22:45:00,
2013-01-07 16:48:00,55.8,34.8,30.33,ENE,68,0.0,0.0,45,0.00,,FEW120,0.00,VWS V14.01,2013-01-07 22:48:00,
2013-01-07 16:50:00,55.8,34.8,30.33,ENE,68,0.0,0.0,45,0.00,,BKN250,0.00,VWS V14.01,2013-01-07 22:50:00,
2013-01-07 16:53:00,55.2,34.8,30.33,NNE,22,0.0,0.0,46,0.00,,FEW120,0.00,VWS V14.01,2013-01-07 22:53:00,
2013-01-07 16:55:00,55.2,34.8,30.33,NNE,22,0.0,0.0,46,0.00,,BKN250,0.00,VWS V14.01,2013-01-07 22:55:00,
2013-01-07 16:58:00,54.7,34.3,30.33,East,90,0.0,1.1,46,0.00,,FEW120,0.00,VWS V14.01,2013-01-07 22:58:00,
2013-01-07 17:00:00,54.7,34.3,30.33,East,90,0.0,1.1,46,0.00,,BKN250,0.00,VWS V14.01,2013-01-07 23:00:00,
2013-01-07 17:03:00,54.5,34.7,30.33,ENE,68,0.0,0.0,47,0.00,,FEW120,0.00,VWS V14.01,2013-01-07 23:03:00,
2013-01-07 17:05:00,54.5,34.7,30.33,ENE,68,0.0,0.0,47,0.00,,BKN250,0.00,VWS V14.01,2013-01-07 23:05:00,
2013-01-07 17:08:00,54.0,34.2,30.33,West,270,0.0,0.0,47,0.00,,FEW120,0.00,VWS V14.01,2013-01-07 23:08:00,
2013-01-07 17:10:00,54.0,34.2,30.33,West,270,0.0,0.0,47,0.00,,BKN250,0.00,VWS V14.01,2013-01-07 23:10:00,
2013-01-07 17:13:00,53.6,33.9,30.33,East,90,0.0,1.1,47,0.00,,FEW120,0.00,VWS V14.01,2013-01-07 23:13:00,
2013-01-07 17:15:00,53.6,33.9,30.33,East,90,0.0,1.1,47,0.00,,BKN250,0.00,VWS V14.01,2013-01-07 23:15:00,
2013-01-07 17:18:00,53.1,33.9,30.33,East,90,0.0,0.0,48,0.00,,FEW120,0.00,VWS V14.01,2013-01-07 23:18:00,
2013-01-07 17:20:00,53.1,33.9,30.33,East,90,0.0,0.0,48,0.00,,BKN250,0.00,VWS V14.01,2013-01-07 23:20:00,
2013-01-07 17:23:00,52.9,34.3,30.33,East,90,0.0,0.0,49,0.00,,FEW120,0.00,VWS V14.01,2013-01-07 23:23:00,
2013-01-07 17:25:00,52.9,34.3,30.33,East,90,0.0,0.0,49,0.00,,BKN250,0.00,VWS V14.01,2013-01-07 23:25:00,
2013-01-07 17:28:00,52.5,33.9,30.33,East,90,0.0,1.3,49,0.00,,FEW120,0.00,VWS V14.01,2013-01-07 23:28:00,
2013-01-07 17:30:00,52.5,33.9,30.33,East,90,0.0,1.3,49,0.00,,BKN250,0.00,VWS V14.01,2013-01-07 23:30:00,
2013-01-07 17:33:00,52.3,33.8,30.36,SW,225,0.0,0.9,49,0.00,,FEW120,0.00,VWS V14.01,2013-01-07 23:33:00,
2013-01-07 17:35:00,52.3,33.8,30.36,SW,225,0.0,0.9,49,0.00,,BKN250,0.00,VWS V14.01,2013-01-07 23:35:00,
2013-01-07 17:38:00,52.0,33.9,30.36,SSE,158,0.0,0.0,50,0.00,,FEW120,0.00,VWS V14.01,2013-01-07 23:38:00,
2013-01-07 17:40:00,52.0,33.9,30.36,SSE,158,0.0,0.0,50,0.00,,BKN250,0.00,VWS V14.01,2013-01-07 23:40:00,
2013-01-07 17:43:00,51.6,34.1,30.36,SSE,158,0.0,0.0,51,0.00,,FEW120,0.00,VWS V14.01,2013-01-07 23:43:00,
2013-01-07 17:45:00,51.6,34.1,30.36,SSE,158,0.0,0.0,51,0.00,,BKN250,0.00,VWS V14.01,2013-01-07 23:45:00,
2013-01-07 17:49:00,51.3,33.8,30.33,SSE,158,0.0,0.0,51,0.00,,FEW120,0.00,VWS V14.01,2013-01-07 23:49:00,
2013-01-07 17:50:00,51.3,33.8,30.33,SSE,158,0.0,0.0,51,0.00,,BKN250,0.00,VWS V14.01,2013-01-07 23:50:00,
2013-01-07 17:54:00,50.9,33.9,30.33,SSE,158,0.0,0.0,52,0.00,,FEW120,0.00,VWS V14.01,2013-01-07 23:54:00,
2013-01-07 17:55:00,49.5,34.9,30.33,West,270,0.0,0.9,57,0.00,,BKN120,0.00,VWS V14.01,2013-01-07 23:55:00,
2013-01-07 17:59:00,50.7,33.8,30.33,SSE,158,0.0,0.0,52,0.00,,FEW120,0.00,VWS V14.01,2013-01-07 23:59:00,
2013-01-07 18:00:00,50.7,33.8,30.33,SSE,158,0.0,0.0,52,0.00,,BKN250,0.00,VWS V14.01,2013-01-08 00:00:00,
2013-01-07 18:04:00,50.5,34.1,30.36,SSE,158,0.0,0.0,53,0.00,,FEW120,0.00,VWS V14.01,2013-01-08 00:04:00,
2013-01-07 18:05:00,50.5,34.1,30.36,SSE,158,0.0,0.0,53,0.00,,BKN250,0.00,VWS V14.01,2013-01-08 00:05:00,
2013-01-07 18:09:00,50.2,33.7,30.36,SSE,158,0.0,0.0,53,0.00,,FEW120,0.00,VWS V14.01,2013-01-08 00:09:00,
2013-01-07 18:10:00,50.2,33.7,30.36,SSE,158,0.0,0.0,53,0.00,,BKN250,0.00,VWS V14.01,2013-01-08 00:10:00,
2013-01-07 18:14:00,50.0,34.0,30.36,SSE,158,0.0,0.0,54,0.00,,FEW120,0.00,VWS V14.01,2013-01-08 00:14:00,
2013-01-07 18:15:00,50.0,34.0,30.36,SSE,158,0.0,0.0,54,0.00,,BKN250,0.00,VWS V14.01,2013-01-08 00:15:00,
2013-01-07 18:19:00,49.8,34.3,30.36,SSE,158,0.0,0.0,55,0.00,,FEW120,0.00,VWS V14.01,2013-01-08 00:19:00,
2013-01-07 18:20:00,49.8,34.3,30.36,SSE,158,0.0,0.0,55,0.00,,BKN250,0.00,VWS V14.01,2013-01-08 00:20:00,
2013-01-07 18:24:00,49.6,34.2,30.36,SSE,158,0.0,0.0,55,0.00,,FEW120,0.00,VWS V14.01,2013-01-08 00:24:00,
2013-01-07 18:25:00,49.6,34.2,30.36,SSE,158,0.0,0.0,55,0.00,,BKN250,0.00,VWS V14.01,2013-01-08 00:25:00,
2013-01-07 18:29:00,49.5,34.4,30.36,SSE,158,0.0,0.0,56,0.00,,FEW120,0.00,VWS V14.01,2013-01-08 00:29:00,
2013-01-07 18:30:00,49.5,34.4,30.36,SSE,158,0.0,0.0,56,0.00,,BKN250,0.00,VWS V14.01,2013-01-08 00:30:00,
2013-01-07 18:34:00,49.3,34.3,30.33,SSE,158,0.0,0.0,56,0.00,,FEW120,0.00,VWS V14.01,2013-01-08 00:34:00,
2013-01-07 18:35:00,49.3,34.3,30.33,SSE,158,0.0,0.0,56,0.00,,BKN250,0.00,VWS V14.01,2013-01-08 00:35:00,
2013-01-07 18:39:00,49.3,34.3,30.33,East,90,0.0,0.0,56,0.00,,FEW120,0.00,VWS V14.01,2013-01-08 00:39:00,
2013-01-07 18:40:00,49.3,34.3,30.33,East,90,0.0,1.1,56,0.00,,BKN250,0.00,VWS V14.01,2013-01-08 00:40:00,
2013-01-07 18:44:00,49.5,34.9,30.33,East,90,0.0,0.0,57,0.00,,FEW120,0.00,VWS V14.01,2013-01-08 00:44:00,
2013-01-07 18:45:00,49.5,34.4,30.33,East,90,0.0,0.0,56,0.00,,BKN250,0.00,VWS V14.01,2013-01-08 00:45:00,
2013-01-07 18:49:00,49.5,34.9,30.33,West,270,0.0,0.9,57,0.00,,FEW120,0.00,VWS V14.01,2013-01-08 00:49:00,
2013-01-07 18:50:00,49.5,34.4,30.33,NW,315,0.9,1.3,56,0.00,,BKN250,0.00,VWS V14.01,2013-01-08 00:50:00,
2013-01-07 18:54:00,49.5,34.9,30.33,West,270,0.0,0.0,57,0.00,,FEW120,0.00,VWS V14.01,2013-01-08 00:54:00,
2013-01-07 18:55:00,49.5,34.9,30.33,West,270,0.0,0.9,57,0.00,,BKN250,0.00,VWS V14.01,2013-01-08 00:55:00,
2013-01-07 18:59:00,49.3,34.7,30.33,NE,45,0.0,0.0,57,0.00,,FEW120,0.00,VWS V14.01,2013-01-08 00:59:00,
2013-01-07 19:00:00,49.3,34.7,30.33,NNE,22,0.0,0.0,57,0.00,,BKN250,0.00,VWS V14.01,2013-01-08 01:00:00,
2013-01-07 19:04:00,49.5,34.9,30.33,WNW,292,0.0,1.1,57,0.00,,FEW120,0.00,VWS V14.01,2013-01-08 01:04:00,
2013-01-07 19:05:00,49.3,34.7,30.33,NE,45,0.0,0.0,57,0.00,,BKN250,0.00,VWS V14.01,2013-01-08 01:05:00,
2013-01-07 19:09:00,49.6,35.0,30.33,East,90,0.0,0.0,57,0.00,,FEW120,0.00,VWS V14.01,2013-01-08 01:09:00,
2013-01-07 19:10:00,49.5,34.9,30.33,East,90,0.0,1.1,57,0.00,,BKN250,0.00,VWS V14.01,2013-01-08 01:10:00,
2013-01-07 19:14:00,49.6,35.0,30.33,East,90,0.0,0.0,57,0.00,,FEW120,0.00,VWS V14.01,2013-01-08 01:14:00,
2013-01-07 19:15:00,49.6,35.0,30.33,East,90,0.0,0.0,57,0.00,,BKN250,0.00,VWS V14.01,2013-01-08 01:15:00,
2013-01-07 19:20:00,49.5,34.9,30.33,East,90,0.0,0.0,57,0.00,,FEW120,0.00,VWS V14.01,2013-01-08 01:20:00,
2013-01-07 19:25:00,49.5,34.9,30.33,East,90,0.0,0.0,57,0.00,,FEW120,0.00,VWS V14.01,2013-01-08 01:25:00,
2013-01-07 19:30:00,49.3,34.7,30.33,East,90,0.0,0.0,57,0.00,,FEW120,0.00,VWS V14.01,2013-01-08 01:30:00,
2013-01-07 19:35:00,49.3,34.7,30.36,East,90,0.0,0.0,57,0.00,,FEW120,0.00,VWS V14.01,2013-01-08 01:35:00,
2013-01-07 19:40:00,49.1,34.5,30.36,East,90,0.0,0.0,57,0.00,,FEW120,0.00,VWS V14.01,2013-01-08 01:40:00,
2013-01-07 19:45:00,49.1,35.0,30.36,East,90,0.0,0.0,58,0.00,,FEW120,0.00,VWS V14.01,2013-01-08 01:45:00,
2013-01-07 19:50:00,49.1,35.0,30.36,ESE,112,0.0,0.0,58,0.00,,FEW120,0.00,VWS V14.01,2013-01-08 01:50:00,
2013-01-07 19:55:00,49.3,35.1,30.36,East,90,0.0,0.0,58,0.00,,FEW120,0.00,VWS V14.01,2013-01-08 01:55:00,
2013-01-07 20:00:00,49.5,35.3,30.36,ESE,112,0.0,0.9,58,0.00,,FEW120,0.00,VWS V14.01,2013-01-08 02:00:00,
2013-01-07 20:05:00,49.5,35.3,30.36,WNW,292,0.0,0.0,58,0.00,,BKN250,0.00,VWS V14.01,2013-01-08 02:05:00,
2013-01-07 20:10:00,49.6,35.5,30.36,East,90,0.0,0.0,58,0.00,,BKN250,0.00,VWS V14.01,2013-01-08 02:10:00,
2013-01-07 20:15:00,49.8,35.7,30.36,East,90,0.0,0.0,58,0.00,,BKN250,0.00,VWS V14.01,2013-01-08 02:15:00,
2013-01-07 20:20:00,50.0,35.4,30.36,ENE,68,0.0,0.0,57,0.00,,BKN250,0.00,VWS V14.01,2013-01-08 02:20:00,
2013-01-07 20:25:00,50.0,35.4,30.36,ENE,68,0.0,0.0,57,0.00,,BKN250,0.00,VWS V14.01,2013-01-08 02:25:00,
2013-01-07 20:30:00,50.0,35.4,30.36,ESE,112,0.0,0.0,57,0.00,,BKN250,0.00,VWS V14.01,2013-01-08 02:30:00,
2013-01-07 20:35:00,50.2,35.5,30.36,NNE,22,1.1,1.1,57,0.00,,BKN250,0.00,VWS V14.01,2013-01-08 02:35:00,
2013-01-07 20:40:00,50.2,35.1,30.36,ENE,68,0.0,1.1,56,0.00,,BKN250,0.00,VWS V14.01,2013-01-08 02:40:00,
2013-01-07 20:45:00,50.0,34.9,30.36,East,90,0.0,0.0,56,0.00,,BKN250,0.00,VWS V14.01,2013-01-08 02:45:00,
2013-01-07 20:50:00,49.8,35.2,30.36,ENE,68,1.1,1.1,57,0.00,,BKN250,0.00,VWS V14.01,2013-01-08 02:50:00,
2013-01-07 20:55:00,49.8,35.2,30.36,ESE,112,0.0,1.3,57,0.00,,BKN250,0.00,VWS V14.01,2013-01-08 02:55:00,
2013-01-07 20:56:00,49.8,35.2,30.36,ESE,112,2.5,2.5,57,0.00,,BKN250,0.00,VWS V14.01,2013-01-08 02:56:00,
2013-01-07 21:00:00,49.6,35.0,30.36,ESE,112,0.0,2.5,57,0.00,,BKN250,0.00,VWS V14.01,2013-01-08 03:00:00,
2013-01-07 21:01:00,49.6,35.0,30.36,ENE,68,0.0,2.5,57,0.00,,BKN250,0.00,VWS V14.01,2013-01-08 03:01:00,
2013-01-07 21:05:00,49.5,34.9,30.36,ESE,112,0.0,2.5,57,0.00,,BKN250,0.00,VWS V14.01,2013-01-08 03:05:00,
2013-01-07 21:06:00,49.5,34.9,30.36,ENE,68,0.0,1.3,57,0.00,,BKN250,0.00,VWS V14.01,2013-01-08 03:06:00,
2013-01-07 21:10:00,49.3,34.7,30.36,ENE,68,0.0,1.3,57,0.00,,BKN250,0.00,VWS V14.01,2013-01-08 03:10:00,
2013-01-07 21:11:00,49.3,34.7,30.36,ENE,68,0.0,0.0,57,0.00,,BKN250,0.00,VWS V14.01,2013-01-08 03:11:00,
2013-01-07 21:15:00,49.1,34.5,30.36,ENE,68,0.0,0.0,57,0.00,,BKN250,0.00,VWS V14.01,2013-01-08 03:15:00,
2013-01-07 21:16:00,48.9,34.4,30.36,ENE,68,0.0,0.0,57,0.00,,BKN250,0.00,VWS V14.01,2013-01-08 03:16:00,
2013-01-07 21:20:00,48.9,34.4,30.36,NW,315,0.0,0.9,57,0.00,,BKN250,0.00,VWS V14.01,2013-01-08 03:20:00,
2013-01-07 21:21:00,48.9,34.4,30.36,East,90,0.0,1.6,57,0.00,,BKN250,0.00,VWS V14.01,2013-01-08 03:21:00,
2013-01-07 21:25:00,48.9,34.4,30.36,West,270,0.0,1.6,57,0.00,,BKN250,0.00,VWS V14.01,2013-01-08 03:25:00,
2013-01-07 21:26:00,48.7,34.2,30.36,ENE,68,2.5,2.5,57,0.00,,BKN250,0.00,VWS V14.01,2013-01-08 03:26:00,
2013-01-07 21:30:00,48.9,34.4,30.36,ENE,68,0.0,2.5,57,0.00,,BKN250,0.00,VWS V14.01,2013-01-08 03:30:00,
2013-01-07 21:31:00,48.7,34.2,30.36,ENE,68,0.0,0.0,57,0.00,,BKN250,0.00,VWS V14.01,2013-01-08 03:31:00,
2013-01-07 21:35:00,48.7,34.6,30.36,ENE,68,0.0,0.0,58,0.00,,BKN250,0.00,VWS V14.01,2013-01-08 03:35:00,
2013-01-07 21:36:00,48.7,34.2,30.36,ENE,68,0.0,0.0,57,0.00,,BKN250,0.00,VWS V14.01,2013-01-08 03:36:00,
2013-01-07 21:40:00,48.6,34.5,30.36,ENE,68,0.0,0.0,58,0.00,,BKN250,0.00,VWS V14.01,2013-01-08 03:40:00,
2013-01-07 21:41:00,48.4,34.3,30.36,NNW,338,0.0,0.0,58,0.00,,BKN250,0.00,VWS V14.01,2013-01-08 03:41:00,
2013-01-07 21:45:00,48.4,34.3,30.36,SE,135,0.0,1.3,58,0.00,,BKN250,0.00,VWS V14.01,2013-01-08 03:45:00,
2013-01-07 21:46:00,48.2,34.1,30.36,SE,135,0.0,0.0,58,0.00,,BKN250,0.00,VWS V14.01,2013-01-08 03:46:00,
2013-01-07 21:50:00,48.2,34.1,30.36,SE,135,0.0,0.0,58,0.00,,BKN250,0.00,VWS V14.01,2013-01-08 03:50:00,
2013-01-07 21:51:00,48.0,34.4,30.36,SE,135,0.0,0.0,59,0.00,,BKN250,0.00,VWS V14.01,2013-01-08 03:51:00,
2013-01-07 21:55:00,48.0,34.8,30.36,SE,135,0.0,0.0,60,0.00,,BKN250,0.00,VWS V14.01,2013-01-08 03:55:00,
2013-01-07 21:56:00,47.8,34.2,30.36,ESE,112,0.0,0.0,59,0.00,,BKN250,0.00,VWS V14.01,2013-01-08 03:56:00,
2013-01-07 22:00:00,47.8,34.2,30.36,ESE,112,0.0,0.0,59,0.00,,BKN250,0.00,VWS V14.01,2013-01-08 04:00:00,
2013-01-07 22:01:00,47.7,34.5,30.36,ESE,112,0.0,0.0,60,0.00,,BKN250,0.00,VWS V14.01,2013-01-08 04:01:00,
2013-01-07 22:05:00,47.7,34.5,30.30,ESE,112,0.0,0.0,60,0.00,,BKN250,0.00,VWS V14.01,2013-01-08 04:05:00,
2013-01-07 22:06:00,47.5,34.7,30.30,ESE,112,0.0,0.0,61,0.00,,BKN250,0.00,VWS V14.01,2013-01-08 04:06:00,
2013-01-07 22:10:00,47.5,34.7,30.30,ESE,112,1.3,2.2,61,0.00,,BKN250,0.00,VWS V14.01,2013-01-08 04:10:00,
2013-01-07 22:11:00,47.5,34.7,30.30,East,90,0.0,2.0,61,0.00,,BKN250,0.00,VWS V14.01,2013-01-08 04:11:00,
2013-01-07 22:15:00,47.3,34.5,30.30,East,90,0.0,2.0,61,0.00,,BKN250,0.00,VWS V14.01,2013-01-08 04:15:00,
2013-01-07 22:16:00,47.3,34.5,30.30,East,90,0.0,1.3,61,0.00,,BKN250,0.00,VWS V14.01,2013-01-08 04:16:00,
2013-01-07 22:20:00,47.3,34.5,30.33,East,90,0.0,1.3,61,0.00,,BKN250,0.00,VWS V14.01,2013-01-08 04:20:00,
2013-01-07 22:21:00,47.3,35.0,30.33,ESE,112,0.0,0.9,62,0.00,,BKN250,0.00,VWS V14.01,2013-01-08 04:21:00,
2013-01-07 22:25:00,47.3,35.0,30.33,ESE,112,0.0,0.9,62,0.00,,BKN250,0.00,VWS V14.01,2013-01-08 04:25:00,
2013-01-07 22:27:00,47.3,35.0,30.33,East,90,0.0,2.0,62,0.00,,BKN250,0.00,VWS V14.01,2013-01-08 04:27:00,
2013-01-07 22:30:00,47.3,35.0,30.33,East,90,0.0,2.0,62,0.00,,BKN250,0.00,VWS V14.01,2013-01-08 04:30:00,
2013-01-07 22:32:00,47.3,35.0,30.33,NE,45,0.0,2.0,62,0.00,,BKN250,0.00,VWS V14.01,2013-01-08 04:32:00,
2013-01-07 22:35:00,47.1,35.2,30.33,East,90,0.0,2.0,63,0.00,,BKN250,0.00,VWS V14.01,2013-01-08 04:35:00,
2013-01-07 22:37:00,47.3,35.4,30.33,SSE,158,0.0,0.9,63,0.00,,BKN250,0.00,VWS V14.01,2013-01-08 04:37:00,
2013-01-07 22:40:00,47.1,35.2,30.33,SSE,158,0.0,0.9,63,0.00,,BKN250,0.00,VWS V14.01,2013-01-08 04:40:00,
2013-01-07 22:42:00,47.1,35.2,30.33,SSE,158,0.0,0.0,63,0.00,,BKN250,0.00,VWS V14.01,2013-01-08 04:42:00,
2013-01-07 22:45:00,47.1,35.2,30.33,SSE,158,0.0,0.0,63,0.00,,BKN250,0.00,VWS V14.01,2013-01-08 04:45:00,
2013-01-07 22:47:00,47.1,35.2,30.33,SSE,158,0.0,0.0,63,0.00,,BKN250,0.00,VWS V14.01,2013-01-08 04:47:00,
2013-01-07 22:50:00,46.9,35.0,30.33,SSE,158,0.0,0.0,63,0.00,,BKN250,0.00,VWS V14.01,2013-01-08 04:50:00,
2013-01-07 22:52:00,46.9,35.0,30.33,SSE,158,0.0,0.0,63,0.00,,BKN250,0.00,VWS V14.01,2013-01-08 04:52:00,
2013-01-07 22:55:00,46.9,35.0,30.33,SSE,158,0.0,0.0,63,0.00,,BKN250,0.00,VWS V14.01,2013-01-08 04:55:00,
2013-01-07 22:57:00,46.9,35.0,30.33,SSE,158,0.0,0.0,63,0.00,,BKN250,0.00,VWS V14.01,2013-01-08 04:57:00,
2013-01-07 23:00:00,46.9,35.4,30.33,ENE,68,0.0,1.6,64,0.00,,BKN250,0.00,VWS V14.01,2013-01-08 05:00:00,
2013-01-07 23:01:00,46.9,35.4,30.33,ENE,68,0.0,1.6,64,0.00,,BKN250,0.00,VWS V14.01,2013-01-08 05:01:00,
2013-01-07 23:03:00,46.9,35.4,30.33,ENE,68,0.0,1.6,64,0.00,,BKN250,0.00,VWS V14.01,2013-01-08 05:03:00,
2013-01-07 23:04:00,46.9,35.4,30.33,East,90,0.0,0.0,64,0.00,,BKN250,0.00,VWS V14.01,2013-01-08 05:04:00,
2013-01-07 23:05:00,46.9,35.4,30.33,ENE,68,0.0,1.6,64,0.00,,BKN250,0.00,VWS V14.01,2013-01-08 05:05:00,
2013-01-07 23:09:00,46.9,35.4,30.33,SE,135,0.0,0.0,64,0.00,,BKN250,0.00,VWS V14.01,2013-01-08 05:09:00,
2013-01-07 23:10:00,46.9,35.4,30.33,SE,135,0.0,0.9,64,0.00,,BKN250,0.00,VWS V14.01,2013-01-08 05:10:00,
2013-01-07 23:14:00,46.8,35.6,30.33,East,90,0.0,0.0,65,0.00,,BKN250,0.00,VWS V14.01,2013-01-08 05:14:00,
2013-01-07 23:15:00,46.9,35.8,30.33,East,90,0.0,1.1,65,0.00,,BKN250,0.00,VWS V14.01,2013-01-08 05:15:00,
2013-01-07 23:19:00,46.8,35.6,30.33,East,90,0.0,0.0,65,0.00,,BKN250,0.00,VWS V14.01,2013-01-08 05:19:00,
2013-01-07 23:20:00,46.8,35.6,30.33,East,90,0.0,0.0,65,0.00,,BKN250,0.00,VWS V14.01,2013-01-08 05:20:00,
2013-01-07 23:24:00,46.8,35.6,30.33,East,90,0.0,0.0,65,0.00,,BKN250,0.00,VWS V14.01,2013-01-08 05:24:00,
2013-01-07 23:25:00,46.8,36.0,30.33,East,90,0.0,1.6,66,0.00,,BKN250,0.00,VWS V14.01,2013-01-08 05:25:00,
2013-01-07 23:29:00,46.8,36.0,30.33,ENE,68,0.0,0.0,66,0.00,,BKN250,0.00,VWS V14.01,2013-01-08 05:29:00,
2013-01-07 23:30:00,46.8,36.0,30.33,East,90,0.0,0.9,66,0.00,,BKN250,0.00,VWS V14.01,2013-01-08 05:30:00,
2013-01-07 23:34:00,46.9,36.2,30.33,East,90,0.0,0.0,66,0.00,,BKN250,0.00,VWS V14.01,2013-01-08 05:34:00,
2013-01-07 23:35:00,46.9,36.2,30.33,NNE,22,0.0,2.2,66,0.00,,BKN250,0.00,VWS V14.01,2013-01-08 05:35:00,
2013-01-07 23:40:00,46.9,36.2,30.33,ENE,68,0.0,0.0,66,0.00,,BKN250,0.00,VWS V14.01,2013-01-08 05:40:00,
2013-01-07 23:45:00,46.9,36.2,30.33,ESE,112,0.0,0.0,66,0.00,,BKN250,0.00,VWS V14.01,2013-01-08 05:45:00,
2013-01-07 23:50:00,46.9,36.6,30.33,ENE,68,0.0,0.0,67,0.00,,BKN250,0.00,VWS V14.01,2013-01-08 05:50:00,
2013-01-07 23:55:00,47.1,36.7,30.33,ENE,68,0.0,1.6,67,0.00,,BKN250,0.00,VWS V14.01,2013-01-08 05:55:00,